createdAt,value
2023-05-14T00:00:56.769Z,45.91
2023-05-14T00:01:58.369Z,45.72
2023-05-14T00:03:00.037Z,45.85
2023-05-14T00:04:01.744Z,45.67
2023-05-14T00:05:03.249Z,45.59
2023-05-14T00:06:05.076Z,45.97
2023-05-14T00:07:06.495Z,45.87
2023-05-14T00:08:08.018Z,45.73
2023-05-14T00:09:09.452Z,46.00
2023-05-14T00:10:10.851Z,46.17
2023-05-14T00:11:12.307Z,45.96
2023-05-14T00:12:13.738Z,46.24
2023-05-14T00:13:15.164Z,45.87
2023-05-14T00:14:16.625Z,46.39
2023-05-14T00:15:18.058Z,46.29
2023-05-14T00:16:19.571Z,46.29
2023-05-14T00:17:21.110Z,46.23
2023-05-14T00:18:22.568Z,46.26
2023-05-14T00:19:23.991Z,46.30
2023-05-14T00:20:25.613Z,45.97
2023-05-14T00:21:27.301Z,46.31
2023-05-14T00:22:28.829Z,46.48
2023-05-14T00:23:30.254Z,46.04
2023-05-14T00:24:31.738Z,46.06
2023-05-14T00:25:33.213Z,46.23
2023-05-14T00:26:34.725Z,46.35
2023-05-14T00:27:36.244Z,46.30
2023-05-14T00:28:37.685Z,46.54
2023-05-14T00:29:39.195Z,46.32
2023-05-14T00:30:40.642Z,46.73
2023-05-14T00:31:42.126Z,46.33
2023-05-14T00:32:43.662Z,46.56
2023-05-14T00:33:45.176Z,46.46
2023-05-14T00:34:46.619Z,46.64
2023-05-14T00:35:48.095Z,46.53
2023-05-14T00:36:49.553Z,46.66
2023-05-14T00:37:51.018Z,46.86
2023-05-14T00:38:52.450Z,46.61
2023-05-14T00:39:53.892Z,46.69
2023-05-14T00:40:55.326Z,46.78
2023-05-14T00:41:56.755Z,46.67
2023-05-14T00:42:58.224Z,46.91
2023-05-14T00:43:59.645Z,46.81
2023-05-14T00:45:01.127Z,46.56
2023-05-14T00:46:02.572Z,46.82
2023-05-14T00:47:04.124Z,46.91
2023-05-14T00:48:05.616Z,46.84
2023-05-14T00:49:07.062Z,46.76
2023-05-14T00:50:08.805Z,46.89
2023-05-14T00:51:10.268Z,47.03
2023-05-14T00:52:11.757Z,46.99
2023-05-14T00:53:13.302Z,47.10
2023-05-14T00:54:14.777Z,46.94
2023-05-14T00:55:16.221Z,46.68
2023-05-14T00:56:17.707Z,46.78
2023-05-14T00:57:19.182Z,47.13
2023-05-14T00:58:20.707Z,47.17
2023-05-14T00:59:22.157Z,46.80
2023-05-14T01:00:23.903Z,47.10
2023-05-14T01:01:25.592Z,47.02
2023-05-14T01:02:27.160Z,47.04
2023-05-14T01:03:28.825Z,46.74
2023-05-14T01:04:30.477Z,46.97
2023-05-14T01:05:32.074Z,46.78
2023-05-14T01:06:33.611Z,47.12
2023-05-14T01:07:35.176Z,46.97
2023-05-14T01:08:36.704Z,47.03
2023-05-14T01:09:38.280Z,47.15
2023-05-14T01:10:39.777Z,47.14
2023-05-14T01:11:41.336Z,47.24
2023-05-14T01:12:42.820Z,46.91
2023-05-14T01:13:44.420Z,47.04
2023-05-14T01:14:45.953Z,46.80
2023-05-14T01:15:47.461Z,46.67
2023-05-14T01:16:49.042Z,47.00
2023-05-14T01:17:50.555Z,47.30
2023-05-14T01:18:52.313Z,47.00
2023-05-14T01:19:53.806Z,47.24
2023-05-14T01:20:55.296Z,47.10
2023-05-14T01:21:56.781Z,47.05
2023-05-14T01:22:58.298Z,47.11
2023-05-14T01:23:59.846Z,47.00
2023-05-14T01:25:01.309Z,47.22
2023-05-14T01:26:02.737Z,47.07
2023-05-14T01:27:04.212Z,47.11
2023-05-14T01:28:05.697Z,46.95
2023-05-14T01:29:07.185Z,47.12
2023-05-14T01:30:08.690Z,47.26
2023-05-14T01:31:10.231Z,47.23
2023-05-14T01:32:11.752Z,47.07
2023-05-14T01:33:13.258Z,47.16
2023-05-14T01:34:14.690Z,47.15
2023-05-14T01:35:16.197Z,47.13
2023-05-14T01:36:17.642Z,47.46
2023-05-14T01:37:19.081Z,46.81
2023-05-14T01:38:20.572Z,47.16
2023-05-14T01:39:22.031Z,47.28
2023-05-14T01:40:23.724Z,47.03
2023-05-14T01:41:25.385Z,47.32
2023-05-14T01:42:26.827Z,47.13
2023-05-14T01:43:28.343Z,47.05
2023-05-14T01:44:31.251Z,46.97
2023-05-14T01:45:32.706Z,47.30
2023-05-14T01:46:34.380Z,47.16
2023-05-14T01:47:35.973Z,47.04
2023-05-14T01:48:37.434Z,46.83
2023-05-14T01:49:38.932Z,47.25
2023-05-14T01:50:40.384Z,47.32
2023-05-14T01:51:41.833Z,47.10
2023-05-14T01:52:43.321Z,47.21
2023-05-14T01:53:44.867Z,47.14
2023-05-14T01:54:46.389Z,47.29
2023-05-14T01:55:47.873Z,47.24
2023-05-14T01:56:49.338Z,47.36
2023-05-14T01:57:50.795Z,47.06
2023-05-14T01:58:52.248Z,47.34
2023-05-14T01:59:53.792Z,47.17
2023-05-14T02:00:55.256Z,46.98
2023-05-14T02:01:56.846Z,47.16
2023-05-14T02:02:58.617Z,46.95
2023-05-14T02:04:00.243Z,47.19
2023-05-14T02:05:01.794Z,46.97
2023-05-14T02:06:03.315Z,47.06
2023-05-14T02:07:04.802Z,47.29
2023-05-14T02:08:06.303Z,46.80
2023-05-14T02:09:07.765Z,47.34
2023-05-14T02:10:09.334Z,47.08
2023-05-14T02:11:10.804Z,47.26
2023-05-14T02:12:12.242Z,47.09
2023-05-14T02:13:14.071Z,47.20
2023-05-14T02:14:15.552Z,47.08
2023-05-14T02:15:17.036Z,47.14
2023-05-14T02:16:18.534Z,46.95
2023-05-14T02:17:20.047Z,46.91
2023-05-14T02:18:21.575Z,46.91
2023-05-14T02:19:23.214Z,46.86
2023-05-14T02:20:24.870Z,46.87
2023-05-14T02:21:26.424Z,47.06
2023-05-14T02:22:27.880Z,47.06
2023-05-14T02:23:38.229Z,46.87
2023-05-14T02:24:43.255Z,47.10
2023-05-14T02:25:44.696Z,46.70
2023-05-14T02:26:46.212Z,46.99
2023-05-14T02:27:47.674Z,46.87
2023-05-14T02:28:49.145Z,47.06
2023-05-14T02:29:50.666Z,47.19
2023-05-14T02:30:52.129Z,47.02
2023-05-14T02:31:53.642Z,47.33
2023-05-14T02:32:55.250Z,47.06
2023-05-14T02:33:56.837Z,47.28
2023-05-14T02:34:58.436Z,47.18
2023-05-14T02:35:59.910Z,47.21
2023-05-14T02:37:01.354Z,47.41
2023-05-14T02:38:02.905Z,47.27
2023-05-14T02:39:04.444Z,47.43
2023-05-14T02:40:05.921Z,47.35
2023-05-14T02:41:07.350Z,47.52
2023-05-14T02:42:08.890Z,47.08
2023-05-14T02:43:10.374Z,47.17
2023-05-14T02:44:11.956Z,47.50
2023-05-14T02:45:13.531Z,47.27
2023-05-14T02:46:15.030Z,47.23
2023-05-14T02:47:16.558Z,47.12
2023-05-14T02:48:18.000Z,47.49
2023-05-14T02:49:19.562Z,47.26
2023-05-14T02:50:21.208Z,47.54
2023-05-14T02:51:22.980Z,47.49
2023-05-14T02:52:24.581Z,47.12
2023-05-14T02:53:27.478Z,46.95
2023-05-14T02:54:29.103Z,47.12
2023-05-14T02:55:30.637Z,47.03
2023-05-14T02:56:32.162Z,47.00
2023-05-14T02:57:33.730Z,47.17
2023-05-14T02:58:35.288Z,47.29
2023-05-14T02:59:36.766Z,47.19
2023-05-14T03:00:38.790Z,46.96
2023-05-14T03:01:40.511Z,47.08
2023-05-14T03:02:42.474Z,47.39
2023-05-14T03:03:44.459Z,47.09
2023-05-14T03:04:46.338Z,47.02
2023-05-14T03:05:47.939Z,47.12
2023-05-14T03:06:49.443Z,47.13
2023-05-14T03:07:50.935Z,46.91
2023-05-14T03:08:52.471Z,46.98
2023-05-14T03:09:54.047Z,47.06
2023-05-14T03:10:55.585Z,46.95
2023-05-14T03:11:57.072Z,47.33
2023-05-14T03:12:58.513Z,47.01
2023-05-14T03:13:59.970Z,47.00
2023-05-14T03:15:01.928Z,47.29
2023-05-14T03:16:03.442Z,47.12
2023-05-14T03:17:05.073Z,47.18
2023-05-14T03:18:06.701Z,47.13
2023-05-14T03:19:08.313Z,46.98
2023-05-14T03:20:09.836Z,47.29
2023-05-14T03:21:11.295Z,46.98
2023-05-14T03:22:12.744Z,47.20
2023-05-14T03:23:14.241Z,47.13
2023-05-14T03:24:15.793Z,47.24
2023-05-14T03:25:17.342Z,47.20
2023-05-14T03:26:18.795Z,47.06
2023-05-14T03:27:20.417Z,47.49
2023-05-14T03:28:21.951Z,47.14
2023-05-14T03:29:23.467Z,47.11
2023-05-14T03:30:25.114Z,47.07
2023-05-14T03:31:26.941Z,47.22
2023-05-14T03:32:28.445Z,47.16
2023-05-14T03:33:29.964Z,47.10
2023-05-14T03:34:31.407Z,47.30
2023-05-14T03:35:32.952Z,46.90
2023-05-14T03:36:34.450Z,47.27
2023-05-14T03:37:35.953Z,47.26
2023-05-14T03:38:37.458Z,47.22
2023-05-14T03:39:38.944Z,47.12
2023-05-14T03:40:40.443Z,47.55
2023-05-14T03:41:41.919Z,47.34
2023-05-14T03:42:43.462Z,47.40
2023-05-14T03:43:44.937Z,47.16
2023-05-14T03:44:46.384Z,47.25
2023-05-14T03:45:47.862Z,47.56
2023-05-14T03:46:49.311Z,47.25
2023-05-14T03:47:50.795Z,47.38
2023-05-14T03:48:52.334Z,47.49
2023-05-14T03:49:53.795Z,47.55
2023-05-14T03:50:55.291Z,47.34
2023-05-14T03:51:56.750Z,47.16
2023-05-14T03:52:58.161Z,47.34
2023-05-14T03:53:59.601Z,47.34
2023-05-14T03:55:01.028Z,47.60
2023-05-14T03:56:02.504Z,47.53
2023-05-14T03:57:03.985Z,47.55
2023-05-14T03:58:05.460Z,47.68
2023-05-14T03:59:06.892Z,47.35
2023-05-14T04:00:08.378Z,47.55
2023-05-14T04:01:09.834Z,47.61
2023-05-14T04:02:11.329Z,47.38
2023-05-14T04:03:12.867Z,47.67
2023-05-14T04:04:14.475Z,47.76
2023-05-14T04:05:16.001Z,47.28
2023-05-14T04:06:17.541Z,47.76
2023-05-14T04:07:19.003Z,47.89
2023-05-14T04:08:20.423Z,48.02
2023-05-14T04:09:21.832Z,47.62
2023-05-14T04:10:23.525Z,47.82
2023-05-14T04:11:25.523Z,47.62
2023-05-14T04:12:26.932Z,47.83
2023-05-14T04:13:28.377Z,47.77
2023-05-14T04:14:29.857Z,48.05
2023-05-14T04:15:31.257Z,47.76
2023-05-14T04:16:32.755Z,48.01
2023-05-14T04:17:35.056Z,47.98
2023-05-14T04:18:36.665Z,47.83
2023-05-14T04:19:38.084Z,48.36
2023-05-14T04:20:39.513Z,48.08
2023-05-14T04:21:40.960Z,48.22
2023-05-14T04:22:42.483Z,48.64
2023-05-14T04:23:43.904Z,48.45
2023-05-14T04:24:45.339Z,48.61
2023-05-14T04:25:46.751Z,48.99
2023-05-14T04:26:48.200Z,49.32
2023-05-14T04:27:49.598Z,48.90
2023-05-14T04:28:51.038Z,49.03
2023-05-14T04:29:52.484Z,49.30
2023-05-14T04:30:53.914Z,49.33
2023-05-14T04:31:55.417Z,49.45
2023-05-14T04:32:56.928Z,49.54
2023-05-14T04:33:58.403Z,49.27
2023-05-14T04:34:59.841Z,49.27
2023-05-14T04:36:01.278Z,49.53
2023-05-14T04:37:02.762Z,49.88
2023-05-14T04:38:04.250Z,49.89
2023-05-14T04:39:05.667Z,49.75
2023-05-14T04:40:07.130Z,49.63
2023-05-14T04:41:08.571Z,49.70
2023-05-14T04:42:10.050Z,49.71
2023-05-14T04:43:11.675Z,49.91
2023-05-14T04:44:13.225Z,49.74
2023-05-14T04:45:14.684Z,49.88
2023-05-14T04:46:16.313Z,50.05
2023-05-14T04:47:17.832Z,49.91
2023-05-14T04:48:19.404Z,50.01
2023-05-14T04:49:20.928Z,50.04
2023-05-14T04:50:22.756Z,50.41
2023-05-14T04:51:24.392Z,50.11
2023-05-14T04:52:25.883Z,50.03
2023-05-14T04:53:27.361Z,50.20
2023-05-14T04:54:28.963Z,50.12
2023-05-14T04:55:30.552Z,50.30
2023-05-14T04:56:32.082Z,50.00
2023-05-14T04:57:33.537Z,50.04
2023-05-14T04:58:35.320Z,50.14
2023-05-14T04:59:36.878Z,50.20
2023-05-14T05:00:38.353Z,50.01
2023-05-14T05:01:40.046Z,50.00
2023-05-14T05:02:41.701Z,50.04
2023-05-14T05:03:43.274Z,50.21
2023-05-14T05:04:44.752Z,49.96
2023-05-14T05:05:46.221Z,50.16
2023-05-14T05:06:47.679Z,49.99
2023-05-14T05:07:49.215Z,49.91
2023-05-14T05:08:50.656Z,50.27
2023-05-14T05:09:52.077Z,50.24
2023-05-14T05:10:53.531Z,49.73
2023-05-14T05:11:54.960Z,49.81
2023-05-14T05:12:56.452Z,49.96
2023-05-14T05:13:57.893Z,50.22
2023-05-14T05:14:59.325Z,49.61
2023-05-14T05:16:01.025Z,49.73
2023-05-14T05:17:02.480Z,49.46
2023-05-14T05:18:03.991Z,49.68
2023-05-14T05:19:05.456Z,49.71
2023-05-14T05:20:06.911Z,49.51
2023-05-14T05:21:08.335Z,49.54
2023-05-14T05:22:09.735Z,49.51
2023-05-14T05:23:11.168Z,49.83
2023-05-14T05:24:12.582Z,49.45
2023-05-14T05:25:14.012Z,49.63
2023-05-14T05:26:15.472Z,49.30
2023-05-14T05:27:16.936Z,49.15
2023-05-14T05:28:18.413Z,48.96
2023-05-14T05:29:19.852Z,48.84
2023-05-14T05:30:21.344Z,48.63
2023-05-14T05:31:22.932Z,48.58
2023-05-14T05:32:24.442Z,48.56
2023-05-14T05:33:25.926Z,48.60
2023-05-14T05:34:27.357Z,48.20
2023-05-14T05:35:28.762Z,48.39
2023-05-14T05:36:30.215Z,48.34
2023-05-14T05:37:31.675Z,48.28
2023-05-14T05:38:33.093Z,48.04
2023-05-14T05:39:34.523Z,47.62
2023-05-14T05:40:36.024Z,47.50
2023-05-14T05:41:37.540Z,47.29
2023-05-14T05:42:38.962Z,47.43
2023-05-14T05:43:40.362Z,46.78
2023-05-14T05:44:41.792Z,46.87
2023-05-14T05:45:43.271Z,46.61
2023-05-14T05:46:44.769Z,46.33
2023-05-14T05:47:46.325Z,46.76
2023-05-14T05:48:47.835Z,46.33
2023-05-14T05:49:49.268Z,46.19
2023-05-14T05:50:50.690Z,46.24
2023-05-14T05:51:52.108Z,46.41
2023-05-14T05:52:53.554Z,46.10
2023-05-14T05:53:55.011Z,45.56
2023-05-14T05:54:56.428Z,45.04
2023-05-14T05:55:57.843Z,45.16
2023-05-14T05:56:59.271Z,44.94
2023-05-14T05:58:00.676Z,44.82
2023-05-14T05:59:02.136Z,45.31
2023-05-14T06:00:03.550Z,44.39
2023-05-14T06:02:06.611Z,44.51
2023-05-14T06:03:08.091Z,44.00
2023-05-14T06:04:09.590Z,44.31
2023-05-14T06:05:11.079Z,44.20
2023-05-14T06:06:12.574Z,44.56
2023-05-14T06:07:13.981Z,43.95
2023-05-14T06:08:15.367Z,43.57
2023-05-14T06:09:16.811Z,44.05
2023-05-14T06:10:18.242Z,43.83
2023-05-14T06:11:19.656Z,43.41
2023-05-14T06:12:21.076Z,42.89
2023-05-14T06:13:22.507Z,42.94
2023-05-14T06:14:23.965Z,42.75
2023-05-14T06:15:25.388Z,42.96
2023-05-14T06:16:26.850Z,42.90
2023-05-14T06:17:28.305Z,42.51
2023-05-14T06:18:29.783Z,42.52
2023-05-14T06:19:31.436Z,42.02
2023-05-14T06:20:32.832Z,42.00
2023-05-14T06:21:34.267Z,41.75
2023-05-14T06:22:35.710Z,41.63
2023-05-14T06:23:37.145Z,41.61
2023-05-14T06:24:38.600Z,41.61
2023-05-14T06:25:40.026Z,41.19
2023-05-14T06:26:41.448Z,41.50
2023-05-14T06:27:42.874Z,41.72
2023-05-14T06:28:44.336Z,41.01
2023-05-14T06:29:45.787Z,40.81
2023-05-14T06:30:47.188Z,41.01
2023-05-14T06:31:48.623Z,40.57
2023-05-14T06:32:50.111Z,40.63
2023-05-14T06:33:51.650Z,40.26
2023-05-14T06:34:53.096Z,40.51
2023-05-14T06:35:54.520Z,40.44
2023-05-14T06:36:55.937Z,40.46
2023-05-14T06:37:57.383Z,40.55
2023-05-14T06:38:58.812Z,40.59
2023-05-14T06:40:00.273Z,40.00
2023-05-14T06:41:01.716Z,40.05
2023-05-14T06:42:03.144Z,40.07
2023-05-14T06:43:04.634Z,39.61
2023-05-14T06:44:06.059Z,39.93
2023-05-14T06:45:07.510Z,39.46
2023-05-14T06:46:08.943Z,39.24
2023-05-14T06:47:10.408Z,39.39
2023-05-14T06:48:11.930Z,39.72
2023-05-14T06:49:13.453Z,39.69
2023-05-14T06:50:14.931Z,39.44
2023-05-14T06:51:16.398Z,39.50
2023-05-14T06:52:17.871Z,39.39
2023-05-14T06:53:19.343Z,39.02
2023-05-14T06:54:20.768Z,39.04
2023-05-14T06:55:22.265Z,39.08
2023-05-14T06:56:23.707Z,38.63
2023-05-14T06:57:25.252Z,39.15
2023-05-14T06:58:26.750Z,38.85
2023-05-14T06:59:28.212Z,38.89
2023-05-14T07:00:29.696Z,38.97
2023-05-14T07:01:31.213Z,38.89
2023-05-14T07:02:32.799Z,38.60
2023-05-14T07:03:34.308Z,38.95
2023-05-14T07:04:35.817Z,38.60
2023-05-14T07:05:37.320Z,38.94
2023-05-14T07:06:38.778Z,39.03
2023-05-14T07:07:40.280Z,38.88
2023-05-14T07:08:41.722Z,37.96
2023-05-14T07:09:43.200Z,38.36
2023-05-14T07:10:44.689Z,38.60
2023-05-14T07:11:46.163Z,38.78
2023-05-14T07:12:47.655Z,38.39
2023-05-14T07:13:49.134Z,38.70
2023-05-14T07:14:50.574Z,38.84
2023-05-14T07:15:52.038Z,38.51
2023-05-14T07:16:53.547Z,38.78
2023-05-14T07:17:55.140Z,38.83
2023-05-14T07:18:56.694Z,38.41
2023-05-14T07:19:58.215Z,38.74
2023-05-14T07:20:59.721Z,38.87
2023-05-14T07:22:01.211Z,38.05
2023-05-14T07:23:02.687Z,38.45
2023-05-14T07:24:04.121Z,38.23
2023-05-14T07:25:05.580Z,38.20
2023-05-14T07:26:07.041Z,38.28
2023-05-14T07:27:08.643Z,38.57
2023-05-14T07:28:10.134Z,37.92
2023-05-14T07:29:11.606Z,37.75
2023-05-14T07:30:13.082Z,37.94
2023-05-14T07:31:14.609Z,37.84
2023-05-14T07:32:16.084Z,37.65
2023-05-14T07:33:17.593Z,37.57
2023-05-14T07:34:19.042Z,37.45
2023-05-14T07:35:20.468Z,37.28
2023-05-14T07:36:21.874Z,36.85
2023-05-14T07:37:24.138Z,36.72
2023-05-14T07:38:25.794Z,37.21
2023-05-14T07:39:27.417Z,37.09
2023-05-14T07:40:28.825Z,36.62
2023-05-14T07:41:30.226Z,36.53
2023-05-14T07:42:36.613Z,36.71
2023-05-14T07:43:38.867Z,37.05
2023-05-14T07:44:40.312Z,36.43
2023-05-14T07:45:41.762Z,36.96
2023-05-14T07:46:43.210Z,36.59
2023-05-14T07:47:44.733Z,36.31
2023-05-14T07:48:46.258Z,36.29
2023-05-14T07:49:47.676Z,36.34
2023-05-14T07:50:49.081Z,36.20
2023-05-14T07:51:50.494Z,36.11
2023-05-14T07:52:51.944Z,36.47
2023-05-14T07:53:53.411Z,36.81
2023-05-14T07:54:54.861Z,35.95
2023-05-14T07:55:56.302Z,35.46
2023-05-14T07:56:57.702Z,35.88
2023-05-14T07:57:59.151Z,35.68
2023-05-14T07:59:00.626Z,35.59
2023-05-14T08:00:02.138Z,35.29
2023-05-14T08:01:03.578Z,35.33
2023-05-14T08:02:05.102Z,35.72
2023-05-14T08:03:06.727Z,35.51
2023-05-14T08:04:08.429Z,35.66
2023-05-14T08:05:09.930Z,35.06
2023-05-14T08:06:11.379Z,35.45
2023-05-14T08:07:12.928Z,35.42
2023-05-14T08:08:14.353Z,35.59
2023-05-14T08:09:15.811Z,35.04
2023-05-14T08:10:17.248Z,35.50
2023-05-14T08:11:18.813Z,35.41
2023-05-14T08:12:20.328Z,35.39
2023-05-14T08:13:21.757Z,36.21
2023-05-14T08:14:23.180Z,35.45
2023-05-14T08:15:27.080Z,35.10
2023-05-14T08:16:29.238Z,35.18
2023-05-14T08:17:30.741Z,36.00
2023-05-14T08:18:32.204Z,35.71
2023-05-14T08:19:33.654Z,35.49
2023-05-14T08:20:35.119Z,35.54
2023-05-14T08:21:36.560Z,34.94
2023-05-14T08:22:37.963Z,35.14
2023-05-14T08:23:39.390Z,34.83
2023-05-14T08:24:40.800Z,34.28
2023-05-14T08:25:42.421Z,35.12
2023-05-14T08:26:43.858Z,35.21
2023-05-14T08:27:45.289Z,35.22
2023-05-14T08:28:46.700Z,35.33
2023-05-14T08:29:48.118Z,35.20
2023-05-14T08:30:49.591Z,34.57
2023-05-14T08:31:51.012Z,34.73
2023-05-14T08:32:52.448Z,35.01
2023-05-14T08:33:53.921Z,34.95
2023-05-14T08:34:55.352Z,34.61
2023-05-14T08:35:56.785Z,34.38
2023-05-14T08:36:58.192Z,34.51
2023-05-14T08:37:59.625Z,35.54
2023-05-14T08:39:01.045Z,35.17
2023-05-14T08:40:02.439Z,34.95
2023-05-14T08:41:03.939Z,34.71
2023-05-14T08:42:05.354Z,33.96
2023-05-14T08:43:06.764Z,33.29
2023-05-14T08:44:08.190Z,33.37
2023-05-14T08:45:09.591Z,33.49
2023-05-14T08:46:11.025Z,33.53
2023-05-14T08:47:12.490Z,33.44
2023-05-14T08:48:14.002Z,33.85
2023-05-14T08:49:15.469Z,33.79
2023-05-14T08:50:16.878Z,33.74
2023-05-14T08:51:18.290Z,33.13
2023-05-14T08:52:19.737Z,33.17
2023-05-14T08:53:21.177Z,33.60
2023-05-14T08:54:22.666Z,33.34
2023-05-14T08:55:24.158Z,32.72
2023-05-14T08:56:25.606Z,33.46
2023-05-14T08:57:27.105Z,32.99
2023-05-14T08:58:28.543Z,32.88
2023-05-14T08:59:29.960Z,32.94
2023-05-14T09:00:31.408Z,33.48
2023-05-14T09:01:32.865Z,33.75
2023-05-14T09:02:34.413Z,33.81
2023-05-14T09:03:35.879Z,32.85
2023-05-14T09:04:37.310Z,32.69
2023-05-14T09:05:38.744Z,32.49
2023-05-14T09:06:40.164Z,32.82
2023-05-14T09:07:41.757Z,32.80
2023-05-14T09:08:43.180Z,33.14
2023-05-14T09:09:44.630Z,32.42
2023-05-14T09:10:46.069Z,32.30
2023-05-14T09:11:47.530Z,33.15
2023-05-14T09:12:48.992Z,32.60
2023-05-14T09:13:50.412Z,32.37
2023-05-14T09:14:51.877Z,31.93
2023-05-14T09:15:53.332Z,31.49
2023-05-14T09:16:54.826Z,31.40
2023-05-14T09:17:56.303Z,31.42
2023-05-14T09:18:57.766Z,31.74
2023-05-14T09:19:59.270Z,31.90
2023-05-14T09:21:00.696Z,31.71
2023-05-14T09:22:02.105Z,32.04
2023-05-14T09:23:03.552Z,31.37
2023-05-14T09:24:04.966Z,31.48
2023-05-14T09:25:06.400Z,31.93
2023-05-14T09:26:07.802Z,31.59
2023-05-14T09:27:09.222Z,31.26
2023-05-14T09:28:10.622Z,31.19
2023-05-14T09:29:12.045Z,31.04
2023-05-14T09:30:13.498Z,30.69
2023-05-14T09:31:14.951Z,30.98
2023-05-14T09:32:16.374Z,30.76
2023-05-14T09:33:17.798Z,31.02
2023-05-14T09:34:19.192Z,31.14
2023-05-14T09:35:20.671Z,31.09
2023-05-14T09:36:22.074Z,30.76
2023-05-14T09:37:23.465Z,30.39
2023-05-14T09:38:24.869Z,30.79
2023-05-14T09:39:26.278Z,30.57
2023-05-14T09:40:27.958Z,30.10
2023-05-14T09:41:29.742Z,29.77
2023-05-14T09:42:31.142Z,29.63
2023-05-14T09:43:32.562Z,29.97
2023-05-14T09:44:34.030Z,29.76
2023-05-14T09:45:35.522Z,30.32
2023-05-14T09:46:36.982Z,30.82
2023-05-14T09:47:38.544Z,31.17
2023-05-14T09:48:40.173Z,31.30
2023-05-14T09:49:41.645Z,31.37
2023-05-14T09:50:43.125Z,30.80
2023-05-14T09:51:44.567Z,30.89
2023-05-14T09:52:46.004Z,30.72
2023-05-14T09:53:47.464Z,30.03
2023-05-14T09:54:48.867Z,29.80
2023-05-14T09:55:50.345Z,30.07
2023-05-14T09:56:52.579Z,30.09
2023-05-14T09:57:55.323Z,28.99
2023-05-14T09:58:56.760Z,29.96
2023-05-14T09:59:58.170Z,29.89
2023-05-14T10:00:59.618Z,29.10
2023-05-14T10:02:01.098Z,29.32
2023-05-14T10:03:02.520Z,29.37
2023-05-14T10:04:04.007Z,29.46
2023-05-14T10:05:05.463Z,29.29
2023-05-14T10:06:06.941Z,29.34
2023-05-14T10:07:08.852Z,29.51
2023-05-14T10:08:11.064Z,30.70
2023-05-14T10:09:12.509Z,31.66
2023-05-14T10:10:13.938Z,31.63
2023-05-14T10:11:15.400Z,31.31
2023-05-14T10:12:16.800Z,31.91
2023-05-14T10:13:18.222Z,32.28
2023-05-14T10:14:19.670Z,31.75
2023-05-14T10:15:21.116Z,31.91
2023-05-14T10:16:22.605Z,31.63
2023-05-14T10:17:24.028Z,31.61
2023-05-14T10:18:25.498Z,31.90
2023-05-14T10:19:26.946Z,32.08
2023-05-14T10:20:28.431Z,32.03
2023-05-14T10:21:29.883Z,31.55
2023-05-14T10:22:31.308Z,31.27
2023-05-14T10:23:32.715Z,29.91
2023-05-14T10:24:34.146Z,30.30
2023-05-14T10:25:35.563Z,30.11
2023-05-14T10:26:37.023Z,31.05
2023-05-14T10:27:38.457Z,31.11
2023-05-14T10:28:39.883Z,31.99
2023-05-14T10:29:41.319Z,32.24
2023-05-14T10:30:42.745Z,31.47
2023-05-14T10:31:44.359Z,31.54
2023-05-14T10:32:45.923Z,31.18
2023-05-14T10:33:47.343Z,30.82
2023-05-14T10:34:49.251Z,31.16
2023-05-14T10:35:50.684Z,30.41
2023-05-14T10:36:52.099Z,31.06
2023-05-14T10:37:53.541Z,30.73
2023-05-14T10:38:54.959Z,30.57
2023-05-14T10:39:56.404Z,29.82
2023-05-14T10:40:57.807Z,29.24
2023-05-14T10:41:59.244Z,29.28
2023-05-14T10:43:00.648Z,29.71
2023-05-14T10:44:02.066Z,29.28
2023-05-14T10:45:03.510Z,29.31
2023-05-14T10:46:04.985Z,29.89
2023-05-14T10:47:06.506Z,29.79
2023-05-14T10:48:07.913Z,30.08
2023-05-14T10:49:09.326Z,29.32
2023-05-14T10:50:10.748Z,29.38
2023-05-14T10:51:12.295Z,30.03
2023-05-14T10:52:13.845Z,29.79
2023-05-14T10:53:15.345Z,30.05
2023-05-14T10:54:16.750Z,30.12
2023-05-14T10:55:18.187Z,29.73
2023-05-14T10:56:19.618Z,29.50
2023-05-14T10:57:21.043Z,28.54
2023-05-14T10:58:22.454Z,28.72
2023-05-14T10:59:23.919Z,28.62
2023-05-14T11:00:25.545Z,28.98
2023-05-14T11:01:27.164Z,28.81
2023-05-14T11:02:28.624Z,28.56
2023-05-14T11:03:30.054Z,28.06
2023-05-14T11:04:31.512Z,27.96
2023-05-14T11:05:33.027Z,28.67
2023-05-14T11:06:34.458Z,28.55
2023-05-14T11:07:35.878Z,29.13
2023-05-14T11:08:38.555Z,29.27
2023-05-14T11:09:39.971Z,29.16
2023-05-14T11:10:41.386Z,28.95
2023-05-14T11:11:42.821Z,28.81
2023-05-14T11:12:44.286Z,29.50
2023-05-14T11:13:45.728Z,29.67
2023-05-14T11:14:47.160Z,29.49
2023-05-14T11:15:48.552Z,29.78
2023-05-14T11:16:50.062Z,29.76
2023-05-14T11:17:51.588Z,29.57
2023-05-14T11:18:53.077Z,30.02
2023-05-14T11:19:54.564Z,29.74
2023-05-14T11:20:55.975Z,29.84
2023-05-14T11:21:57.389Z,29.98
2023-05-14T11:22:58.821Z,30.15
2023-05-14T11:24:00.237Z,29.86
2023-05-14T11:25:01.683Z,29.84
2023-05-14T11:26:03.238Z,29.95
2023-05-14T11:27:04.751Z,29.65
2023-05-14T11:28:06.188Z,29.79
2023-05-14T11:29:07.657Z,29.43
2023-05-14T11:30:09.105Z,29.09
2023-05-14T11:31:10.597Z,29.65
2023-05-14T11:32:12.118Z,29.97
2023-05-14T11:33:13.609Z,29.54
2023-05-14T11:34:15.094Z,29.40
2023-05-14T11:35:16.548Z,29.85
2023-05-14T11:36:18.389Z,30.55
2023-05-14T11:37:19.809Z,30.16
2023-05-14T11:38:21.283Z,29.97
2023-05-14T11:39:22.703Z,29.86
2023-05-14T11:40:24.362Z,30.39
2023-05-14T11:41:26.011Z,30.65
2023-05-14T11:42:27.456Z,30.74
2023-05-14T11:43:28.874Z,30.88
2023-05-14T11:44:31.727Z,31.15
2023-05-14T11:45:33.149Z,30.89
2023-05-14T11:46:34.719Z,30.67
2023-05-14T11:47:36.215Z,31.08
2023-05-14T11:48:37.700Z,30.53
2023-05-14T11:49:39.113Z,30.76
2023-05-14T11:50:40.558Z,30.86
2023-05-14T11:51:42.013Z,30.54
2023-05-14T11:52:43.428Z,30.44
2023-05-14T11:53:44.845Z,29.79
2023-05-14T11:54:46.268Z,29.77
2023-05-14T11:55:47.661Z,30.00
2023-05-14T11:56:49.143Z,30.52
2023-05-14T11:57:50.575Z,30.45
2023-05-14T11:58:51.996Z,30.76
2023-05-14T11:59:53.418Z,30.09
2023-05-14T12:00:54.823Z,30.16
2023-05-14T12:01:56.259Z,30.25
2023-05-14T12:02:57.851Z,30.57
2023-05-14T12:03:59.432Z,30.78
2023-05-14T12:05:00.948Z,30.98
2023-05-14T12:06:02.381Z,30.50
2023-05-14T12:07:03.825Z,31.02
2023-05-14T12:08:05.284Z,31.17
2023-05-14T12:09:06.688Z,30.58
2023-05-14T12:10:08.101Z,30.81
2023-05-14T12:11:09.524Z,30.94
2023-05-14T12:12:10.958Z,30.68
2023-05-14T12:13:12.359Z,30.98
2023-05-14T12:14:13.793Z,31.33
2023-05-14T12:15:15.225Z,31.43
2023-05-14T12:16:16.785Z,30.94
2023-05-14T12:17:18.239Z,30.93
2023-05-14T12:18:26.182Z,31.23
2023-05-14T12:19:27.699Z,31.09
2023-05-14T12:20:29.116Z,31.43
2023-05-14T12:21:30.561Z,31.06
2023-05-14T12:22:31.964Z,31.04
2023-05-14T12:23:33.424Z,31.04
2023-05-14T12:24:34.832Z,31.15
2023-05-14T12:25:36.217Z,30.44
2023-05-14T12:26:37.683Z,30.21
2023-05-14T12:27:39.128Z,30.48
2023-05-14T12:28:40.533Z,30.29
2023-05-14T12:29:41.972Z,29.92
2023-05-14T12:30:43.385Z,29.78
2023-05-14T12:31:44.892Z,30.25
2023-05-14T12:32:46.460Z,29.19
2023-05-14T12:33:47.929Z,29.03
2023-05-14T12:34:49.346Z,30.02
2023-05-14T12:35:50.762Z,30.43
2023-05-14T12:36:52.191Z,30.96
2023-05-14T12:37:53.602Z,30.46
2023-05-14T12:38:55.010Z,30.77
2023-05-14T12:39:56.458Z,29.97
2023-05-14T12:40:57.888Z,30.00
2023-05-14T12:41:59.305Z,30.34
2023-05-14T12:43:00.742Z,30.43
2023-05-14T12:44:02.165Z,30.13
2023-05-14T12:45:03.584Z,30.57
2023-05-14T12:46:05.062Z,30.79
2023-05-14T12:47:06.524Z,30.49
2023-05-14T12:48:08.237Z,31.48
2023-05-14T12:49:09.678Z,30.97
2023-05-14T12:50:11.093Z,31.06
2023-05-14T12:51:12.517Z,31.18
2023-05-14T12:53:18.256Z,31.26
2023-05-14T12:54:19.811Z,31.77
2023-05-14T12:55:21.260Z,30.95
2023-05-14T12:56:22.690Z,31.75
2023-05-14T12:57:24.317Z,31.48
2023-05-14T12:58:25.732Z,31.15
2023-05-14T12:59:27.181Z,31.03
2023-05-14T13:00:28.595Z,31.09
2023-05-14T13:01:30.088Z,30.87
2023-05-14T13:02:31.543Z,30.91
2023-05-14T13:03:32.952Z,31.38
2023-05-14T13:04:34.482Z,30.20
2023-05-14T13:05:36.024Z,30.33
2023-05-14T13:06:37.429Z,30.87
2023-05-14T13:07:38.959Z,31.04
2023-05-14T13:08:42.096Z,30.74
2023-05-14T13:09:44.134Z,30.44
2023-05-14T13:10:45.554Z,30.93
2023-05-14T13:11:47.011Z,31.23
2023-05-14T13:12:48.479Z,31.31
2023-05-14T13:13:49.887Z,30.91
2023-05-14T13:14:51.335Z,30.97